sensor_id;sensor_type;location;lat;lon;timestamp;temperature;humidity
774;DHT22;370;48.810;9.150;2023-03-14T00:00:40;9.80;73.20
774;DHT22;370;48.810;9.150;2023-03-14T00:03:07;9.80;73.80
774;DHT22;370;48.810;9.150;2023-03-14T00:05:34;9.90;73.60
774;DHT22;370;48.810;9.150;2023-03-14T00:08:00;9.80;72.80
774;DHT22;370;48.810;9.150;2023-03-14T00:10:27;9.80;72.70
774;DHT22;370;48.810;9.150;2023-03-14T00:12:54;9.80;72.80
774;DHT22;370;48.810;9.150;2023-03-14T00:15:22;9.80;72.50
774;DHT22;370;48.810;9.150;2023-03-14T00:17:49;9.80;72.70
774;DHT22;370;48.810;9.150;2023-03-14T00:20:15;9.80;72.90
774;DHT22;370;48.810;9.150;2023-03-14T00:22:42;9.80;73.10
774;DHT22;370;48.810;9.150;2023-03-14T00:25:11;9.80;72.40
774;DHT22;370;48.810;9.150;2023-03-14T00:27:38;9.80;73.10
774;DHT22;370;48.810;9.150;2023-03-14T00:30:06;9.80;73.20
774;DHT22;370;48.810;9.150;2023-03-14T00:32:34;9.80;72.90
774;DHT22;370;48.810;9.150;2023-03-14T00:35:01;9.80;73.30
774;DHT22;370;48.810;9.150;2023-03-14T00:37:28;9.80;73.20
774;DHT22;370;48.810;9.150;2023-03-14T00:39:55;9.80;73.20
774;DHT22;370;48.810;9.150;2023-03-14T00:42:24;9.80;72.90
774;DHT22;370;48.810;9.150;2023-03-14T00:44:50;9.80;71.60
774;DHT22;370;48.810;9.150;2023-03-14T00:47:17;9.80;72.00
774;DHT22;370;48.810;9.150;2023-03-14T00:49:45;9.80;71.90
774;DHT22;370;48.810;9.150;2023-03-14T00:52:12;9.80;71.70
774;DHT22;370;48.810;9.150;2023-03-14T00:54:39;9.70;71.90
774;DHT22;370;48.810;9.150;2023-03-14T00:57:05;9.70;72.50
774;DHT22;370;48.810;9.150;2023-03-14T00:59:32;9.70;72.00
774;DHT22;370;48.810;9.150;2023-03-14T01:01:59;9.70;71.90
774;DHT22;370;48.810;9.150;2023-03-14T01:04:26;9.70;71.90
774;DHT22;370;48.810;9.150;2023-03-14T01:06:54;9.70;72.00
774;DHT22;370;48.810;9.150;2023-03-14T01:09:21;9.70;71.90
774;DHT22;370;48.810;9.150;2023-03-14T01:11:47;9.80;72.40
774;DHT22;370;48.810;9.150;2023-03-14T01:14:14;9.80;71.10
774;DHT22;370;48.810;9.150;2023-03-14T01:16:41;9.80;71.20
774;DHT22;370;48.810;9.150;2023-03-14T01:19:08;9.90;71.20
774;DHT22;370;48.810;9.150;2023-03-14T01:21:35;9.90;71.20
774;DHT22;370;48.810;9.150;2023-03-14T01:24:05;9.90;71.20
774;DHT22;370;48.810;9.150;2023-03-14T01:26:34;9.90;71.20
774;DHT22;370;48.810;9.150;2023-03-14T01:29:01;9.90;71.20
774;DHT22;370;48.810;9.150;2023-03-14T01:31:28;9.90;71.30
774;DHT22;370;48.810;9.150;2023-03-14T01:33:55;9.90;71.90
774;DHT22;370;48.810;9.150;2023-03-14T01:36:21;9.90;71.20
774;DHT22;370;48.810;9.150;2023-03-14T01:38:48;9.90;71.20
774;DHT22;370;48.810;9.150;2023-03-14T01:41:18;9.90;71.20
774;DHT22;370;48.810;9.150;2023-03-14T01:43:46;9.90;69.80
774;DHT22;370;48.810;9.150;2023-03-14T01:46:22;9.90;69.20
774;DHT22;370;48.810;9.150;2023-03-14T01:48:57;9.80;68.40
774;DHT22;370;48.810;9.150;2023-03-14T01:51:28;9.80;67.50
774;DHT22;370;48.810;9.150;2023-03-14T01:54:01;9.80;67.50
774;DHT22;370;48.810;9.150;2023-03-14T01:56:30;9.70;67.70
774;DHT22;370;48.810;9.150;2023-03-14T01:58:59;9.70;68.20
774;DHT22;370;48.810;9.150;2023-03-14T02:01:28;9.70;67.90
774;DHT22;370;48.810;9.150;2023-03-14T02:03:59;9.70;66.70
774;DHT22;370;48.810;9.150;2023-03-14T02:06:32;9.70;65.60
774;DHT22;370;48.810;9.150;2023-03-14T02:09:01;9.60;64.70
774;DHT22;370;48.810;9.150;2023-03-14T02:11:30;9.60;65.30
774;DHT22;370;48.810;9.150;2023-03-14T02:13:58;9.60;63.90
774;DHT22;370;48.810;9.150;2023-03-14T02:16:25;9.60;62.10
774;DHT22;370;48.810;9.150;2023-03-14T02:18:52;9.60;60.90
774;DHT22;370;48.810;9.150;2023-03-14T02:21:23;9.50;60.80
774;DHT22;370;48.810;9.150;2023-03-14T02:24:01;9.50;60.80
774;DHT22;370;48.810;9.150;2023-03-14T02:26:34;9.50;61.70
774;DHT22;370;48.810;9.150;2023-03-14T02:29:04;9.40;62.90
774;DHT22;370;48.810;9.150;2023-03-14T02:31:31;9.50;62.90
774;DHT22;370;48.810;9.150;2023-03-14T02:33:59;9.40;63.80
774;DHT22;370;48.810;9.150;2023-03-14T02:36:26;9.40;64.20
774;DHT22;370;48.810;9.150;2023-03-14T02:39:00;9.50;64.10
774;DHT22;370;48.810;9.150;2023-03-14T02:41:30;9.40;63.40
774;DHT22;370;48.810;9.150;2023-03-14T02:43:57;9.50;62.40
774;DHT22;370;48.810;9.150;2023-03-14T02:46:25;9.50;62.80
774;DHT22;370;48.810;9.150;2023-03-14T02:48:55;9.40;63.50
774;DHT22;370;48.810;9.150;2023-03-14T02:51:24;9.40;63.10
774;DHT22;370;48.810;9.150;2023-03-14T02:53:52;9.40;62.60
774;DHT22;370;48.810;9.150;2023-03-14T02:56:18;9.40;62.70
774;DHT22;370;48.810;9.150;2023-03-14T02:58:45;9.40;62.10
774;DHT22;370;48.810;9.150;2023-03-14T03:01:12;9.40;60.70
774;DHT22;370;48.810;9.150;2023-03-14T03:03:40;9.40;60.80
774;DHT22;370;48.810;9.150;2023-03-14T03:06:07;9.40;60.70
774;DHT22;370;48.810;9.150;2023-03-14T03:08:34;9.30;61.00
774;DHT22;370;48.810;9.150;2023-03-14T03:11:00;9.30;60.60
774;DHT22;370;48.810;9.150;2023-03-14T03:13:27;9.30;58.70
774;DHT22;370;48.810;9.150;2023-03-14T03:15:54;9.30;58.80
774;DHT22;370;48.810;9.150;2023-03-14T03:18:21;9.30;56.80
774;DHT22;370;48.810;9.150;2023-03-14T03:20:49;9.30;53.60
774;DHT22;370;48.810;9.150;2023-03-14T03:23:16;9.30;53.80
774;DHT22;370;48.810;9.150;2023-03-14T03:25:48;9.30;55.10
774;DHT22;370;48.810;9.150;2023-03-14T03:28:15;9.20;55.70
774;DHT22;370;48.810;9.150;2023-03-14T03:30:41;9.30;54.70
774;DHT22;370;48.810;9.150;2023-03-14T03:33:09;9.20;54.70
774;DHT22;370;48.810;9.150;2023-03-14T03:35:42;9.30;51.00
774;DHT22;370;48.810;9.150;2023-03-14T03:38:10;9.30;47.10
774;DHT22;370;48.810;9.150;2023-03-14T03:40:37;9.20;48.30
774;DHT22;370;48.810;9.150;2023-03-14T03:43:04;9.30;48.30
774;DHT22;370;48.810;9.150;2023-03-14T03:45:31;9.30;48.20
774;DHT22;370;48.810;9.150;2023-03-14T03:47:57;9.20;48.10
774;DHT22;370;48.810;9.150;2023-03-14T03:50:24;9.20;46.20
774;DHT22;370;48.810;9.150;2023-03-14T03:52:51;9.20;47.10
774;DHT22;370;48.810;9.150;2023-03-14T03:55:19;9.20;44.40
774;DHT22;370;48.810;9.150;2023-03-14T03:57:46;9.30;42.20
774;DHT22;370;48.810;9.150;2023-03-14T04:00:13;9.30;39.80
774;DHT22;370;48.810;9.150;2023-03-14T04:02:40;9.30;41.00
774;DHT22;370;48.810;9.150;2023-03-14T04:05:07;9.30;39.50
774;DHT22;370;48.810;9.150;2023-03-14T04:07:34;9.30;41.00
774;DHT22;370;48.810;9.150;2023-03-14T04:10:01;9.30;38.80
774;DHT22;370;48.810;9.150;2023-03-14T04:12:29;9.30;36.00
774;DHT22;370;48.810;9.150;2023-03-14T04:14:55;9.30;35.30
774;DHT22;370;48.810;9.150;2023-03-14T04:17:22;9.30;36.70
774;DHT22;370;48.810;9.150;2023-03-14T04:19:49;9.30;35.50
774;DHT22;370;48.810;9.150;2023-03-14T04:22:16;9.40;31.30
774;DHT22;370;48.810;9.150;2023-03-14T04:24:43;9.40;30.90
774;DHT22;370;48.810;9.150;2023-03-14T04:27:10;9.40;30.90
774;DHT22;370;48.810;9.150;2023-03-14T04:29:38;9.50;30.20
774;DHT22;370;48.810;9.150;2023-03-14T04:32:05;9.50;31.00
774;DHT22;370;48.810;9.150;2023-03-14T04:34:31;9.50;28.30
774;DHT22;370;48.810;9.150;2023-03-14T04:36:58;9.50;28.00
774;DHT22;370;48.810;9.150;2023-03-14T04:39:25;9.50;31.00
774;DHT22;370;48.810;9.150;2023-03-14T04:41:52;9.40;28.80
774;DHT22;370;48.810;9.150;2023-03-14T04:44:19;9.40;30.90
774;DHT22;370;48.810;9.150;2023-03-14T04:46:47;9.40;27.10
774;DHT22;370;48.810;9.150;2023-03-14T04:49:14;9.50;26.80
774;DHT22;370;48.810;9.150;2023-03-14T04:51:41;9.50;28.80
774;DHT22;370;48.810;9.150;2023-03-14T04:54:08;9.40;26.40
774;DHT22;370;48.810;9.150;2023-03-14T04:56:35;9.50;25.10
774;DHT22;370;48.810;9.150;2023-03-14T04:59:02;9.50;25.80
774;DHT22;370;48.810;9.150;2023-03-14T05:01:29;9.50;23.60
774;DHT22;370;48.810;9.150;2023-03-14T05:03:57;9.50;21.80
774;DHT22;370;48.810;9.150;2023-03-14T05:06:24;9.50;22.70
774;DHT22;370;48.810;9.150;2023-03-14T05:08:50;9.50;22.70
774;DHT22;370;48.810;9.150;2023-03-14T05:11:17;9.50;24.10
774;DHT22;370;48.810;9.150;2023-03-14T05:13:44;9.40;25.00
774;DHT22;370;48.810;9.150;2023-03-14T05:16:11;9.50;25.00
774;DHT22;370;48.810;9.150;2023-03-14T05:18:38;9.40;23.90
774;DHT22;370;48.810;9.150;2023-03-14T05:21:06;9.40;24.60
774;DHT22;370;48.810;9.150;2023-03-14T05:23:33;9.40;24.90
774;DHT22;370;48.810;9.150;2023-03-14T05:25:59;9.40;22.60
774;DHT22;370;48.810;9.150;2023-03-14T05:28:26;9.30;23.60
774;DHT22;370;48.810;9.150;2023-03-14T05:30:54;9.30;22.80
774;DHT22;370;48.810;9.150;2023-03-14T05:33:20;9.40;20.00
774;DHT22;370;48.810;9.150;2023-03-14T05:35:47;9.40;22.00
774;DHT22;370;48.810;9.150;2023-03-14T05:38:15;9.40;20.50
774;DHT22;370;48.810;9.150;2023-03-14T05:40:42;9.30;22.50
774;DHT22;370;48.810;9.150;2023-03-14T05:43:08;9.30;22.50
774;DHT22;370;48.810;9.150;2023-03-14T05:45:35;9.30;23.80
774;DHT22;370;48.810;9.150;2023-03-14T05:48:02;9.30;22.20
774;DHT22;370;48.810;9.150;2023-03-14T05:50:29;9.30;22.50
774;DHT22;370;48.810;9.150;2023-03-14T05:52:56;9.20;22.50
774;DHT22;370;48.810;9.150;2023-03-14T05:55:25;9.30;23.40
774;DHT22;370;48.810;9.150;2023-03-14T05:57:53;9.30;23.30
774;DHT22;370;48.810;9.150;2023-03-14T06:00:21;9.30;21.20
774;DHT22;370;48.810;9.150;2023-03-14T06:02:48;9.40;20.40
774;DHT22;370;48.810;9.150;2023-03-14T06:05:15;9.50;22.70
774;DHT22;370;48.810;9.150;2023-03-14T06:07:42;9.60;21.60
774;DHT22;370;48.810;9.150;2023-03-14T06:10:10;9.60;20.10
774;DHT22;370;48.810;9.150;2023-03-14T06:12:38;9.70;20.40
774;DHT22;370;48.810;9.150;2023-03-14T06:15:05;9.60;19.50
774;DHT22;370;48.810;9.150;2023-03-14T06:17:32;9.60;19.70
774;DHT22;370;48.810;9.150;2023-03-14T06:19:59;9.70;17.60
774;DHT22;370;48.810;9.150;2023-03-14T06:22:26;9.70;19.30
774;DHT22;370;48.810;9.150;2023-03-14T06:24:53;9.70;19.00
774;DHT22;370;48.810;9.150;2023-03-14T06:27:19;9.80;19.80
774;DHT22;370;48.810;9.150;2023-03-14T06:29:47;9.70;20.30
774;DHT22;370;48.810;9.150;2023-03-14T06:32:14;9.80;18.90
774;DHT22;370;48.810;9.150;2023-03-14T06:34:41;9.80;19.70
774;DHT22;370;48.810;9.150;2023-03-14T06:37:08;9.80;18.80
774;DHT22;370;48.810;9.150;2023-03-14T06:39:34;9.90;17.70
774;DHT22;370;48.810;9.150;2023-03-14T06:42:01;10.10;18.20
774;DHT22;370;48.810;9.150;2023-03-14T06:44:28;10.10;16.30
774;DHT22;370;48.810;9.150;2023-03-14T06:46:56;10.10;15.20
774;DHT22;370;48.810;9.150;2023-03-14T06:49:23;10.20;14.80
774;DHT22;370;48.810;9.150;2023-03-14T06:51:50;10.20;15.60
774;DHT22;370;48.810;9.150;2023-03-14T06:54:16;10.30;16.20
774;DHT22;370;48.810;9.150;2023-03-14T06:56:43;10.50;12.70
774;DHT22;370;48.810;9.150;2023-03-14T06:59:10;10.90;10.90
774;DHT22;370;48.810;9.150;2023-03-14T07:01:37;11.90;9.30
774;DHT22;370;48.810;9.150;2023-03-14T07:04:05;13.40;8.90
774;DHT22;370;48.810;9.150;2023-03-14T07:06:32;14.10;1.00
774;DHT22;370;48.810;9.150;2023-03-14T07:08:59;14.10;1.00
774;DHT22;370;48.810;9.150;2023-03-14T07:11:26;13.80;1.00
774;DHT22;370;48.810;9.150;2023-03-14T07:13:53;14.10;1.00
774;DHT22;370;48.810;9.150;2023-03-14T07:16:20;14.60;1.00
774;DHT22;370;48.810;9.150;2023-03-14T07:18:46;15.60;1.00
774;DHT22;370;48.810;9.150;2023-03-14T07:21:16;16.50;1.00
774;DHT22;370;48.810;9.150;2023-03-14T07:23:42;17.50;1.00
774;DHT22;370;48.810;9.150;2023-03-14T07:26:09;18.80;1.00
774;DHT22;370;48.810;9.150;2023-03-14T07:28:36;19.50;1.00
774;DHT22;370;48.810;9.150;2023-03-14T07:31:03;19.80;1.00
774;DHT22;370;48.810;9.150;2023-03-14T07:33:30;20.00;1.00
774;DHT22;370;48.810;9.150;2023-03-14T07:35:57;21.00;1.00
774;DHT22;370;48.810;9.150;2023-03-14T07:38:25;21.60;1.00
774;DHT22;370;48.810;9.150;2023-03-14T07:40:58;21.10;1.00
774;DHT22;370;48.810;9.150;2023-03-14T07:43:25;20.80;1.00
774;DHT22;370;48.810;9.150;2023-03-14T07:45:52;21.60;1.00
774;DHT22;370;48.810;9.150;2023-03-14T07:48:19;21.50;1.00
774;DHT22;370;48.810;9.150;2023-03-14T07:50:48;21.90;1.00
774;DHT22;370;48.810;9.150;2023-03-14T07:53:15;22.50;1.00
774;DHT22;370;48.810;9.150;2023-03-14T07:55:43;22.40;1.00
774;DHT22;370;48.810;9.150;2023-03-14T07:58:10;23.20;1.00
774;DHT22;370;48.810;9.150;2023-03-14T08:00:37;23.40;1.00
774;DHT22;370;48.810;9.150;2023-03-14T08:03:04;23.30;1.00
774;DHT22;370;48.810;9.150;2023-03-14T08:05:33;22.80;1.00
774;DHT22;370;48.810;9.150;2023-03-14T08:08:00;22.80;1.00
774;DHT22;370;48.810;9.150;2023-03-14T08:10:26;22.70;1.00
774;DHT22;370;48.810;9.150;2023-03-14T08:12:57;22.60;1.00
774;DHT22;370;48.810;9.150;2023-03-14T08:15:24;22.70;1.00
774;DHT22;370;48.810;9.150;2023-03-14T08:17:51;23.70;1.00
774;DHT22;370;48.810;9.150;2023-03-14T08:20:20;24.30;1.00
774;DHT22;370;48.810;9.150;2023-03-14T08:22:47;25.50;1.00
774;DHT22;370;48.810;9.150;2023-03-14T08:25:14;26.40;1.00
774;DHT22;370;48.810;9.150;2023-03-14T08:27:42;27.00;1.00
774;DHT22;370;48.810;9.150;2023-03-14T08:30:12;27.30;1.00
774;DHT22;370;48.810;9.150;2023-03-14T08:32:39;26.60;1.00
774;DHT22;370;48.810;9.150;2023-03-14T08:35:07;25.80;1.00
774;DHT22;370;48.810;9.150;2023-03-14T08:37:34;24.50;1.00
774;DHT22;370;48.810;9.150;2023-03-14T08:40:02;23.70;1.00
774;DHT22;370;48.810;9.150;2023-03-14T08:42:31;22.50;1.00
774;DHT22;370;48.810;9.150;2023-03-14T08:44:58;22.00;1.00
774;DHT22;370;48.810;9.150;2023-03-14T08:47:27;21.20;1.00
774;DHT22;370;48.810;9.150;2023-03-14T08:49:54;20.70;1.00
774;DHT22;370;48.810;9.150;2023-03-14T08:52:21;20.60;1.00
774;DHT22;370;48.810;9.150;2023-03-14T08:54:48;20.90;1.00
774;DHT22;370;48.810;9.150;2023-03-14T08:57:15;21.80;1.00
774;DHT22;370;48.810;9.150;2023-03-14T08:59:41;23.60;1.00
774;DHT22;370;48.810;9.150;2023-03-14T09:02:09;25.20;1.00
774;DHT22;370;48.810;9.150;2023-03-14T09:04:38;24.60;1.00
774;DHT22;370;48.810;9.150;2023-03-14T09:07:05;23.20;1.00
774;DHT22;370;48.810;9.150;2023-03-14T09:09:32;21.90;1.00
774;DHT22;370;48.810;9.150;2023-03-14T09:11:59;21.90;1.00
774;DHT22;370;48.810;9.150;2023-03-14T09:14:25;21.50;1.00
774;DHT22;370;48.810;9.150;2023-03-14T09:16:52;21.20;1.00
774;DHT22;370;48.810;9.150;2023-03-14T09:19:19;20.80;1.00
774;DHT22;370;48.810;9.150;2023-03-14T09:21:47;20.40;1.00
774;DHT22;370;48.810;9.150;2023-03-14T09:24:14;20.00;1.00
774;DHT22;370;48.810;9.150;2023-03-14T09:26:40;19.60;1.00
774;DHT22;370;48.810;9.150;2023-03-14T09:29:07;20.50;1.00
774;DHT22;370;48.810;9.150;2023-03-14T09:31:34;21.00;1.00
774;DHT22;370;48.810;9.150;2023-03-14T09:34:01;20.80;1.00
774;DHT22;370;48.810;9.150;2023-03-14T09:36:29;20.80;1.00
774;DHT22;370;48.810;9.150;2023-03-14T09:38:57;20.70;1.00
774;DHT22;370;48.810;9.150;2023-03-14T09:41:25;20.60;1.00
774;DHT22;370;48.810;9.150;2023-03-14T09:43:59;19.70;1.00
774;DHT22;370;48.810;9.150;2023-03-14T09:46:27;20.10;1.00
774;DHT22;370;48.810;9.150;2023-03-14T09:48:55;19.60;1.00
774;DHT22;370;48.810;9.150;2023-03-14T09:51:21;19.70;1.00
774;DHT22;370;48.810;9.150;2023-03-14T09:53:50;20.10;1.00
774;DHT22;370;48.810;9.150;2023-03-14T09:56:20;19.60;1.00
774;DHT22;370;48.810;9.150;2023-03-14T09:58:51;19.00;1.00
774;DHT22;370;48.810;9.150;2023-03-14T10:01:22;19.00;1.00
774;DHT22;370;48.810;9.150;2023-03-14T10:03:54;18.90;1.00
774;DHT22;370;48.810;9.150;2023-03-14T10:06:23;19.50;1.00
774;DHT22;370;48.810;9.150;2023-03-14T10:08:50;20.70;1.00
774;DHT22;370;48.810;9.150;2023-03-14T10:11:20;22.20;1.00
774;DHT22;370;48.810;9.150;2023-03-14T10:14:01;24.50;1.00
774;DHT22;370;48.810;9.150;2023-03-14T10:16:30;26.40;1.00
774;DHT22;370;48.810;9.150;2023-03-14T10:19:06;27.20;1.00
774;DHT22;370;48.810;9.150;2023-03-14T10:21:37;28.30;1.00
774;DHT22;370;48.810;9.150;2023-03-14T10:24:22;29.30;1.00
774;DHT22;370;48.810;9.150;2023-03-14T10:26:52;30.60;1.00
774;DHT22;370;48.810;9.150;2023-03-14T10:29:19;31.70;1.00
774;DHT22;370;48.810;9.150;2023-03-14T10:31:51;30.10;1.00
774;DHT22;370;48.810;9.150;2023-03-14T10:34:23;28.10;1.00
774;DHT22;370;48.810;9.150;2023-03-14T10:36:55;26.40;1.00
774;DHT22;370;48.810;9.150;2023-03-14T10:42:17;23.00;1.00
774;DHT22;370;48.810;9.150;2023-03-14T10:44:46;21.90;1.00
774;DHT22;370;48.810;9.150;2023-03-14T10:47:19;21.40;1.00
774;DHT22;370;48.810;9.150;2023-03-14T10:49:48;21.40;1.00
774;DHT22;370;48.810;9.150;2023-03-14T10:52:20;21.00;1.00
774;DHT22;370;48.810;9.150;2023-03-14T10:54:48;20.30;1.00
774;DHT22;370;48.810;9.150;2023-03-14T10:57:19;19.70;1.00
774;DHT22;370;48.810;9.150;2023-03-14T10:59:46;18.40;1.00
774;DHT22;370;48.810;9.150;2023-03-14T11:05:40;17.10;1.00
774;DHT22;370;48.810;9.150;2023-03-14T11:08:10;16.60;1.00
774;DHT22;370;48.810;9.150;2023-03-14T11:10:39;16.20;1.00
774;DHT22;370;48.810;9.150;2023-03-14T11:13:15;16.00;1.00
774;DHT22;370;48.810;9.150;2023-03-14T11:15:51;15.80;1.00
774;DHT22;370;48.810;9.150;2023-03-14T11:21:28;15.60;1.00
774;DHT22;370;48.810;9.150;2023-03-14T11:26:50;14.10;1.00
774;DHT22;370;48.810;9.150;2023-03-14T11:29:25;13.50;3.70
774;DHT22;370;48.810;9.150;2023-03-14T11:31:56;13.10;4.00
774;DHT22;370;48.810;9.150;2023-03-14T11:34:28;12.90;7.00
774;DHT22;370;48.810;9.150;2023-03-14T11:36:59;12.70;10.00
774;DHT22;370;48.810;9.150;2023-03-14T11:39:35;12.30;9.60
774;DHT22;370;48.810;9.150;2023-03-14T11:42:04;12.10;10.10
774;DHT22;370;48.810;9.150;2023-03-14T11:44:38;12.10;10.40
774;DHT22;370;48.810;9.150;2023-03-14T11:47:09;12.00;7.00
774;DHT22;370;48.810;9.150;2023-03-14T11:49:40;11.80;10.10
774;DHT22;370;48.810;9.150;2023-03-14T11:52:12;11.70;9.70
774;DHT22;370;48.810;9.150;2023-03-14T11:54:42;11.70;9.30
774;DHT22;370;48.810;9.150;2023-03-14T11:57:15;11.70;10.50
774;DHT22;370;48.810;9.150;2023-03-14T11:59:50;11.70;13.90
774;DHT22;370;48.810;9.150;2023-03-14T12:02:22;11.60;14.90
774;DHT22;370;48.810;9.150;2023-03-14T12:05:04;11.70;15.00
774;DHT22;370;48.810;9.150;2023-03-14T12:07:43;12.30;13.40
774;DHT22;370;48.810;9.150;2023-03-14T12:10:17;13.50;7.40
774;DHT22;370;48.810;9.150;2023-03-14T12:12:44;14.00;5.20
774;DHT22;370;48.810;9.150;2023-03-14T12:15:19;14.00;1.00
774;DHT22;370;48.810;9.150;2023-03-14T12:17:46;13.50;3.20
774;DHT22;370;48.810;9.150;2023-03-14T12:20:20;13.10;7.10
774;DHT22;370;48.810;9.150;2023-03-14T12:22:48;12.70;9.20
774;DHT22;370;48.810;9.150;2023-03-14T12:25:19;12.40;7.30
774;DHT22;370;48.810;9.150;2023-03-14T12:28:17;12.10;9.40
774;DHT22;370;48.810;9.150;2023-03-14T12:30:46;13.00;5.40
774;DHT22;370;48.810;9.150;2023-03-14T12:33:31;14.20;1.00
774;DHT22;370;48.810;9.150;2023-03-14T12:36:12;15.50;1.00
774;DHT22;370;48.810;9.150;2023-03-14T12:38:52;16.90;1.00
774;DHT22;370;48.810;9.150;2023-03-14T12:41:24;16.70;1.00
774;DHT22;370;48.810;9.150;2023-03-14T12:43:51;16.20;1.00
774;DHT22;370;48.810;9.150;2023-03-14T12:46:24;17.20;1.00
774;DHT22;370;48.810;9.150;2023-03-14T12:49:02;19.30;1.00
774;DHT22;370;48.810;9.150;2023-03-14T12:51:35;19.80;1.00
774;DHT22;370;48.810;9.150;2023-03-14T12:54:36;21.20;1.00
774;DHT22;370;48.810;9.150;2023-03-14T12:57:23;21.80;1.00
774;DHT22;370;48.810;9.150;2023-03-14T12:59:55;22.70;1.00
774;DHT22;370;48.810;9.150;2023-03-14T13:02:27;22.00;1.00
774;DHT22;370;48.810;9.150;2023-03-14T13:05:02;23.10;1.00
774;DHT22;370;48.810;9.150;2023-03-14T13:07:33;23.40;1.00
774;DHT22;370;48.810;9.150;2023-03-14T13:10:04;21.80;1.00
774;DHT22;370;48.810;9.150;2023-03-14T13:12:38;19.80;1.00
774;DHT22;370;48.810;9.150;2023-03-14T13:15:19;18.20;1.00
774;DHT22;370;48.810;9.150;2023-03-14T13:17:48;17.30;1.00
774;DHT22;370;48.810;9.150;2023-03-14T13:20:21;16.70;1.00
774;DHT22;370;48.810;9.150;2023-03-14T13:22:49;15.50;1.00
774;DHT22;370;48.810;9.150;2023-03-14T13:25:17;15.40;1.00
774;DHT22;370;48.810;9.150;2023-03-14T13:27:47;15.70;1.00
774;DHT22;370;48.810;9.150;2023-03-14T13:30:20;15.60;1.00
774;DHT22;370;48.810;9.150;2023-03-14T13:32:51;15.90;1.00
774;DHT22;370;48.810;9.150;2023-03-14T13:35:20;15.30;1.00
774;DHT22;370;48.810;9.150;2023-03-14T13:37:51;14.70;1.00
774;DHT22;370;48.810;9.150;2023-03-14T13:40:29;14.40;1.00
774;DHT22;370;48.810;9.150;2023-03-14T13:43:02;13.90;1.00
774;DHT22;370;48.810;9.150;2023-03-14T13:45:29;13.30;1.00
774;DHT22;370;48.810;9.150;2023-03-14T13:47:57;13.20;1.00
774;DHT22;370;48.810;9.150;2023-03-14T13:50:24;13.20;1.00
774;DHT22;370;48.810;9.150;2023-03-14T13:52:55;13.60;1.00
774;DHT22;370;48.810;9.150;2023-03-14T13:55:23;13.50;1.00
774;DHT22;370;48.810;9.150;2023-03-14T13:57:51;13.20;1.00
774;DHT22;370;48.810;9.150;2023-03-14T14:00:21;12.80;1.00
774;DHT22;370;48.810;9.150;2023-03-14T14:02:52;12.50;1.00
774;DHT22;370;48.810;9.150;2023-03-14T14:05:21;12.00;1.00
774;DHT22;370;48.810;9.150;2023-03-14T14:07:49;11.70;1.00
774;DHT22;370;48.810;9.150;2023-03-14T14:10:16;11.90;1.00
774;DHT22;370;48.810;9.150;2023-03-14T14:12:46;12.10;1.00
774;DHT22;370;48.810;9.150;2023-03-14T14:15:17;11.80;1.00
774;DHT22;370;48.810;9.150;2023-03-14T14:17:48;11.50;1.00
774;DHT22;370;48.810;9.150;2023-03-14T14:20:22;11.30;1.00
774;DHT22;370;48.810;9.150;2023-03-14T14:22:50;11.50;1.00
774;DHT22;370;48.810;9.150;2023-03-14T14:25:18;11.50;1.00
774;DHT22;370;48.810;9.150;2023-03-14T14:27:48;11.60;1.00
774;DHT22;370;48.810;9.150;2023-03-14T14:30:27;11.60;1.00
774;DHT22;370;48.810;9.150;2023-03-14T14:33:11;11.50;1.00
774;DHT22;370;48.810;9.150;2023-03-14T14:35:40;11.50;1.00
774;DHT22;370;48.810;9.150;2023-03-14T14:38:12;11.40;1.00
774;DHT22;370;48.810;9.150;2023-03-14T14:40:47;11.30;1.00
774;DHT22;370;48.810;9.150;2023-03-14T14:43:17;11.20;1.00
774;DHT22;370;48.810;9.150;2023-03-14T14:45:48;10.90;1.00
774;DHT22;370;48.810;9.150;2023-03-14T14:48:17;10.90;1.00
774;DHT22;370;48.810;9.150;2023-03-14T14:50:55;10.70;1.00
774;DHT22;370;48.810;9.150;2023-03-14T14:53:26;10.60;1.00
774;DHT22;370;48.810;9.150;2023-03-14T14:55:55;10.50;1.00
774;DHT22;370;48.810;9.150;2023-03-14T14:58:24;10.50;1.00
774;DHT22;370;48.810;9.150;2023-03-14T15:00:54;10.50;1.00
774;DHT22;370;48.810;9.150;2023-03-14T15:03:22;10.60;1.00
774;DHT22;370;48.810;9.150;2023-03-14T15:05:53;10.70;1.00
774;DHT22;370;48.810;9.150;2023-03-14T15:08:21;10.80;1.00
774;DHT22;370;48.810;9.150;2023-03-14T15:10:48;10.90;1.00
774;DHT22;370;48.810;9.150;2023-03-14T15:13:15;10.90;1.00
774;DHT22;370;48.810;9.150;2023-03-14T15:15:42;11.10;1.00
774;DHT22;370;48.810;9.150;2023-03-14T15:18:13;11.50;1.00
774;DHT22;370;48.810;9.150;2023-03-14T15:20:40;11.80;1.00
774;DHT22;370;48.810;9.150;2023-03-14T15:23:13;12.00;1.00
774;DHT22;370;48.810;9.150;2023-03-14T15:25:40;11.90;1.00
774;DHT22;370;48.810;9.150;2023-03-14T15:28:19;11.80;1.00
774;DHT22;370;48.810;9.150;2023-03-14T15:30:46;11.50;1.00
774;DHT22;370;48.810;9.150;2023-03-14T15:33:13;11.30;1.00
774;DHT22;370;48.810;9.150;2023-03-14T15:35:40;11.00;1.00
774;DHT22;370;48.810;9.150;2023-03-14T15:38:11;10.90;1.00
774;DHT22;370;48.810;9.150;2023-03-14T15:40:39;10.60;1.00
774;DHT22;370;48.810;9.150;2023-03-14T15:43:06;10.40;1.00
774;DHT22;370;48.810;9.150;2023-03-14T15:45:33;10.40;1.00
774;DHT22;370;48.810;9.150;2023-03-14T15:48:00;10.30;1.00
774;DHT22;370;48.810;9.150;2023-03-14T15:50:27;10.30;1.00
774;DHT22;370;48.810;9.150;2023-03-14T15:52:54;10.40;1.00
774;DHT22;370;48.810;9.150;2023-03-14T15:55:23;10.50;1.00
774;DHT22;370;48.810;9.150;2023-03-14T15:57:50;10.80;1.00
774;DHT22;370;48.810;9.150;2023-03-14T16:00:19;10.90;1.00
774;DHT22;370;48.810;9.150;2023-03-14T16:02:47;10.80;1.00
774;DHT22;370;48.810;9.150;2023-03-14T16:05:14;10.80;1.00
774;DHT22;370;48.810;9.150;2023-03-14T16:07:41;10.60;1.00
774;DHT22;370;48.810;9.150;2023-03-14T16:10:11;10.40;1.00
774;DHT22;370;48.810;9.150;2023-03-14T16:12:39;10.10;1.00
774;DHT22;370;48.810;9.150;2023-03-14T16:15:08;9.90;1.00
774;DHT22;370;48.810;9.150;2023-03-14T16:17:35;9.80;1.00
774;DHT22;370;48.810;9.150;2023-03-14T16:20:03;9.70;1.00
774;DHT22;370;48.810;9.150;2023-03-14T16:22:30;9.60;1.00
774;DHT22;370;48.810;9.150;2023-03-14T16:25:00;9.40;1.00
774;DHT22;370;48.810;9.150;2023-03-14T16:27:27;9.30;1.00
774;DHT22;370;48.810;9.150;2023-03-14T16:29:56;9.30;1.00
774;DHT22;370;48.810;9.150;2023-03-14T16:32:23;9.30;1.00
774;DHT22;370;48.810;9.150;2023-03-14T16:34:50;9.30;1.00
774;DHT22;370;48.810;9.150;2023-03-14T16:37:17;9.30;1.00
774;DHT22;370;48.810;9.150;2023-03-14T16:39:46;9.30;1.00
774;DHT22;370;48.810;9.150;2023-03-14T16:42:13;9.40;1.00
774;DHT22;370;48.810;9.150;2023-03-14T16:44:40;9.40;1.00
774;DHT22;370;48.810;9.150;2023-03-14T16:47:11;9.40;1.00
774;DHT22;370;48.810;9.150;2023-03-14T16:49:38;9.40;1.00
774;DHT22;370;48.810;9.150;2023-03-14T16:52:06;9.40;1.00
774;DHT22;370;48.810;9.150;2023-03-14T16:54:33;9.40;1.00
774;DHT22;370;48.810;9.150;2023-03-14T16:57:00;9.30;1.00
774;DHT22;370;48.810;9.150;2023-03-14T16:59:42;9.30;1.00
774;DHT22;370;48.810;9.150;2023-03-14T17:02:10;9.30;1.00
774;DHT22;370;48.810;9.150;2023-03-14T17:04:39;9.20;1.00
774;DHT22;370;48.810;9.150;2023-03-14T17:07:06;9.30;1.00
774;DHT22;370;48.810;9.150;2023-03-14T17:09:33;9.30;1.00
774;DHT22;370;48.810;9.150;2023-03-14T17:12:00;9.30;1.00
774;DHT22;370;48.810;9.150;2023-03-14T17:14:26;9.30;1.00